AirNav   Pilot Hours Calculator
 
 643 users online  

0VA0 Rambo Airfield
Warrenton, Virginia, USA


FAA INFORMATION EFFECTIVE 12 SEPTEMBER 2019

Location

FAA Identifier: 0VA0
Lat/Long: 38-31-29.4800N 077-41-14.4800W
38-31.491333N 077-41.241333W
38.5248556,-77.6873556
(estimated)
Elevation: 390 ft. / 119 m (estimated)
From city: 12 miles SE of WARRENTON, VA
Time zone: UTC +0 (year round; does not observe DST)
Zip code: 22720

Airport Operations

Airport use: Private use. Permission required prior to landing
Activation date: 05/2019
Control tower: no
ARTCC: WASHINGTON CENTER
FSS: LEESBURG FLIGHT SERVICE STATION
Attendance: 
Segmented circle: no

Airport Communications

WX AWOS-3 at HWY (4 nm N): 120.350 (540-788-4078)
WX AWOS-3 at CJR (8 nm W): 119.325 (540-727-0523)
WX AWOS-3 at RMN (13 nm SE): 126.325 (540-657-8283)
WX AWOS-3PT at HEF (14 nm NE): PHONE 703-361-6160
WX AWOS-3 at EZF (19 nm SE): 128.125 (540-372-6794)

Nearby radio navigation aids

VOR radial/distance  VOR name  Freq  Var
CSNr136/10.9CASANOVA VORTAC116.3006W
BRVr315/19.4BROOKE VORTAC114.5009W
AMLr211/26.7ARMEL VOR/DME113.5008W
LDNr135/31.3LINDEN VORTAC114.3006W
DCAr246/36.5WASHINGTON VOR/DME111.0009W
GVEr042/37.7GORDONSVILLE VORTAC115.6006W

 
NDB name  Hdg/Dist  Freq  Var  ID
NAILR078/11.135110WMSQ -- ... --.-
SHANNON334/19.123710WEZF . --.. ..-.
DAVEE262/28.322309WDAA -.. .- .-
OXONN256/34.133211WDCA -.. -.-. .-
GEORGETOWN236/35.932309WGTN --. - -.
CAVERNS115/38.324509WLUA .-.. ..- .-

Airport Services

Runway Information

Runway 13/31

Dimensions: 2300 x 125 ft. / 701 x 38 m
Surface: turf, in fair condition
RUNWAY 13  RUNWAY 31
Traffic pattern: leftleft

Airport Ownership and Management from official FAA records

Ownership: Privately-owned
Owner: GENE RAMBO
305 RILEY STREET
FALLS CHURCH, VA 22046
Phone 202-674-1445
Manager: GENE RAMBO
305 RILEY STREET
FALLS CHURCH, VA 22046
Phone 202-674-1445
GENERAMBO@MSN.COM

Airport Operational Statistics

Aircraft based on the field: 4
Single engine airplanes: 2
Helicopters: 2
    

Instrument Procedures

There are no published instrument procedures at 0VA0.

Some nearby airports with instrument procedures:

KHWY - Warrenton-Fauquier Airport (4 nm N)
KCJR - Culpeper Regional Airport (8 nm W)
KRMN - Stafford Regional Airport (13 nm SE)
KHEF - Manassas Regional Airport/Harry P. Davis Field (14 nm NE)
KNYG - Quantico Marine Corps Airfield / Turner Field (18 nm E)
KEZF - Shannon Airport (19 nm SE)
 
Loc | Ops | Rwys | IFR | FBO | Links
Com | Nav | Svcs | Stats | Notes
Aerial photo
No photo
 
Airport distance calculator
Flying to Rambo Airfield? Find the distance to fly.

From to 0VA0

Sunrise and sunset
Times for 21-Sep-2019
 Zulu (UTC)
Morning civil twilight10:32
Sunrise10:59
Sunset23:09
Evening civil twilight23:36

Current date and time
Zulu (UTC)  22-Sep-2019 03:12:39
 
METAR
KHWY 
4nm N 
220255Z AUTO 00000KT 10SM SCT060 BKN080 OVC120 23/18 A3019 RMK AO2 T02250184
KRMN 
13nm SE 
220255Z AUTO 00000KT 10SM BKN065 OVC080 21/21 A3023 RMK AO2 T02050205
KHEF 
14nm NE 
220256Z AUTO 00000KT 10SM SCT060 BKN100 23/18 A3020 RMK AO2 SLP229 T02330178 53011
KNYG 
19nm E 
220256Z AUTO 18005KT 10SM BKN080 OVC110 26/19 A3019 RMK AO2 SLP224 T02560194 51010
KEZF 
19nm SE 
220255Z AUTO 00000KT 10SM SCT070 OVC090 23/20 A3018 RMK AO2 T02250203
TAF
KNYG 
19nm E 
2109/2209 30006KT 9999 FEW200 QNH3009INS BECMG 2118/2120 VRB06KT 9999 SCT060 BKN100 QNH307INS T14/2111Z T26/2121Z
NOTAMs
Click for the latest NOTAMs
NOTAMs are issued by the DoD/FAA and will open in a separate window not controlled by AirNav.

 

 
 

Would you like to see your business listed on this page?

 If your business provides an interesting product or service to pilots, flight crews, aircraft, or users of the Rambo Airfield, you should consider listing it here.  To start the listing process, click on the button below
 
Add a business
 

Other Pages about Rambo Airfield

Update a link
 
Copyright © AirNav, LLC. All rights reserved. Privacy Policy  Contact